sensor_id;sensor_type;location;lat;lon;timestamp;P1;durP1;ratioP1;P2;durP2;ratioP2
27869;SDS011;15225;50.730;4.244;2023-04-09T18:39:41;10.20;;;4.90;;
27869;SDS011;15225;50.730;4.244;2023-04-09T18:42:07;6.25;;;4.43;;
27869;SDS011;15225;50.730;4.244;2023-04-09T18:44:32;11.50;;;4.60;;
27869;SDS011;15225;50.730;4.244;2023-04-09T18:47:00;4.55;;;3.65;;
27869;SDS011;15225;50.730;4.244;2023-04-09T18:49:28;6.38;;;4.75;;
27869;SDS011;15225;50.730;4.244;2023-04-09T18:51:54;5.55;;;4.28;;
27869;SDS011;15225;50.730;4.244;2023-04-09T18:54:20;5.47;;;3.88;;
27869;SDS011;15225;50.730;4.244;2023-04-09T18:56:46;5.80;;;4.45;;
27869;SDS011;15225;50.730;4.244;2023-04-09T18:59:12;10.85;;;4.75;;
27869;SDS011;15225;50.730;4.244;2023-04-09T19:01:37;5.97;;;4.47;;
27869;SDS011;15225;50.730;4.244;2023-04-09T19:04:03;9.20;;;5.68;;
27869;SDS011;15225;50.730;4.244;2023-04-09T19:06:29;9.82;;;4.65;;
27869;SDS011;15225;50.730;4.244;2023-04-09T19:08:57;6.30;;;4.38;;
27869;SDS011;15225;50.730;4.244;2023-04-09T19:11:23;7.90;;;4.95;;
27869;SDS011;15225;50.730;4.244;2023-04-09T19:13:50;8.40;;;4.93;;
27869;SDS011;15225;50.730;4.244;2023-04-09T19:16:16;7.07;;;4.70;;
27869;SDS011;15225;50.730;4.244;2023-04-09T19:18:42;7.82;;;5.38;;
27869;SDS011;15225;50.730;4.244;2023-04-09T19:21:07;7.70;;;5.35;;
27869;SDS011;15225;50.730;4.244;2023-04-09T19:23:33;9.65;;;5.88;;
27869;SDS011;15225;50.730;4.244;2023-04-09T19:26:00;7.15;;;4.95;;
27869;SDS011;15225;50.730;4.244;2023-04-09T19:28:26;8.65;;;5.65;;
27869;SDS011;15225;50.730;4.244;2023-04-09T19:30:52;12.80;;;7.10;;
27869;SDS011;15225;50.730;4.244;2023-04-09T19:33:25;9.40;;;6.18;;
27869;SDS011;15225;50.730;4.244;2023-04-09T19:35:52;7.95;;;5.50;;
27869;SDS011;15225;50.730;4.244;2023-04-09T19:38:19;7.10;;;5.70;;
27869;SDS011;15225;50.730;4.244;2023-04-09T19:40:45;11.63;;;6.32;;
27869;SDS011;15225;50.730;4.244;2023-04-09T19:43:11;10.70;;;6.03;;
27869;SDS011;15225;50.730;4.244;2023-04-09T19:45:37;10.25;;;5.72;;
27869;SDS011;15225;50.730;4.244;2023-04-09T19:48:04;7.00;;;5.88;;
27869;SDS011;15225;50.730;4.244;2023-04-09T19:50:33;16.70;;;6.00;;
27869;SDS011;15225;50.730;4.244;2023-04-09T19:53:01;7.88;;;5.20;;
27869;SDS011;15225;50.730;4.244;2023-04-09T19:55:26;9.00;;;5.50;;
27869;SDS011;15225;50.730;4.244;2023-04-09T19:57:52;8.02;;;6.63;;
27869;SDS011;15225;50.730;4.244;2023-04-09T20:00:18;8.93;;;6.88;;
27869;SDS011;15225;50.730;4.244;2023-04-09T20:02:43;12.15;;;6.90;;
27869;SDS011;15225;50.730;4.244;2023-04-09T20:05:09;12.55;;;7.05;;
27869;SDS011;15225;50.730;4.244;2023-04-09T20:07:35;8.00;;;6.38;;
27869;SDS011;15225;50.730;4.244;2023-04-09T20:10:01;10.60;;;7.45;;
27869;SDS011;15225;50.730;4.244;2023-04-09T20:12:27;7.93;;;6.82;;
27869;SDS011;15225;50.730;4.244;2023-04-09T20:14:56;12.40;;;7.05;;
27869;SDS011;15225;50.730;4.244;2023-04-09T20:17:23;12.57;;;7.75;;
27869;SDS011;15225;50.730;4.244;2023-04-09T20:19:49;11.80;;;7.55;;
27869;SDS011;15225;50.730;4.244;2023-04-09T20:22:15;10.90;;;7.80;;
27869;SDS011;15225;50.730;4.244;2023-04-09T20:24:41;16.83;;;8.10;;
27869;SDS011;15225;50.730;4.244;2023-04-09T20:27:08;12.57;;;8.50;;
27869;SDS011;15225;50.730;4.244;2023-04-09T20:29:33;9.55;;;7.90;;
27869;SDS011;15225;50.730;4.244;2023-04-09T20:31:59;11.18;;;8.05;;
27869;SDS011;15225;50.730;4.244;2023-04-09T20:34:25;12.45;;;8.73;;
27869;SDS011;15225;50.730;4.244;2023-04-09T20:36:54;9.75;;;8.23;;
27869;SDS011;15225;50.730;4.244;2023-04-09T20:39:20;11.93;;;7.82;;
27869;SDS011;15225;50.730;4.244;2023-04-09T20:41:48;11.10;;;8.75;;
27869;SDS011;15225;50.730;4.244;2023-04-09T20:44:14;11.43;;;8.50;;
27869;SDS011;15225;50.730;4.244;2023-04-09T20:46:40;10.75;;;8.27;;
27869;SDS011;15225;50.730;4.244;2023-04-09T20:49:06;13.57;;;9.48;;
27869;SDS011;15225;50.730;4.244;2023-04-09T20:51:32;12.35;;;9.32;;
27869;SDS011;15225;50.730;4.244;2023-04-09T20:53:58;14.13;;;9.63;;
27869;SDS011;15225;50.730;4.244;2023-04-09T20:56:24;13.05;;;9.20;;
27869;SDS011;15225;50.730;4.244;2023-04-09T20:58:50;15.43;;;9.55;;
27869;SDS011;15225;50.730;4.244;2023-04-09T21:01:16;12.50;;;8.85;;
27869;SDS011;15225;50.730;4.244;2023-04-09T21:03:42;12.10;;;9.63;;
27869;SDS011;15225;50.730;4.244;2023-04-09T21:06:08;10.52;;;8.85;;
27869;SDS011;15225;50.730;4.244;2023-04-09T21:08:34;12.18;;;9.23;;
27869;SDS011;15225;50.730;4.244;2023-04-09T21:11:00;13.27;;;9.65;;
27869;SDS011;15225;50.730;4.244;2023-04-09T21:13:26;12.55;;;9.77;;
27869;SDS011;15225;50.730;4.244;2023-04-09T21:15:52;13.18;;;9.50;;
27869;SDS011;15225;50.730;4.244;2023-04-09T21:18:18;15.30;;;10.70;;
27869;SDS011;15225;50.730;4.244;2023-04-09T21:20:44;15.05;;;9.30;;
27869;SDS011;15225;50.730;4.244;2023-04-09T21:23:10;14.13;;;10.10;;
27869;SDS011;15225;50.730;4.244;2023-04-09T21:25:36;14.75;;;9.63;;
27869;SDS011;15225;50.730;4.244;2023-04-09T21:28:02;17.90;;;10.00;;
27869;SDS011;15225;50.730;4.244;2023-04-09T21:30:28;12.52;;;9.45;;
27869;SDS011;15225;50.730;4.244;2023-04-09T21:32:55;12.15;;;9.93;;
27869;SDS011;15225;50.730;4.244;2023-04-09T21:35:21;14.93;;;10.20;;
27869;SDS011;15225;50.730;4.244;2023-04-09T21:37:46;16.95;;;10.77;;
27869;SDS011;15225;50.730;4.244;2023-04-09T21:40:13;13.57;;;10.95;;
27869;SDS011;15225;50.730;4.244;2023-04-09T21:42:43;13.57;;;10.90;;
27869;SDS011;15225;50.730;4.244;2023-04-09T21:45:12;20.05;;;13.98;;
27869;SDS011;15225;50.730;4.244;2023-04-09T21:47:38;16.67;;;12.48;;
27869;SDS011;15225;50.730;4.244;2023-04-09T21:50:05;20.38;;;14.23;;
27869;SDS011;15225;50.730;4.244;2023-04-09T21:52:31;15.95;;;10.95;;
27869;SDS011;15225;50.730;4.244;2023-04-09T21:54:56;13.95;;;10.70;;
27869;SDS011;15225;50.730;4.244;2023-04-09T21:57:22;21.25;;;11.60;;
27869;SDS011;15225;50.730;4.244;2023-04-09T21:59:48;16.67;;;11.70;;
27869;SDS011;15225;50.730;4.244;2023-04-09T22:02:14;17.48;;;11.88;;
27869;SDS011;15225;50.730;4.244;2023-04-09T22:04:40;15.68;;;11.50;;
27869;SDS011;15225;50.730;4.244;2023-04-09T22:07:07;21.67;;;13.88;;
27869;SDS011;15225;50.730;4.244;2023-04-09T22:09:33;22.27;;;13.55;;
27869;SDS011;15225;50.730;4.244;2023-04-09T22:11:59;23.23;;;12.43;;
27869;SDS011;15225;50.730;4.244;2023-04-09T22:14:27;13.55;;;10.73;;
27869;SDS011;15225;50.730;4.244;2023-04-09T22:16:55;17.80;;;11.60;;
27869;SDS011;15225;50.730;4.244;2023-04-09T22:19:27;17.05;;;11.68;;
27869;SDS011;15225;50.730;4.244;2023-04-09T22:21:55;16.42;;;11.18;;
27869;SDS011;15225;50.730;4.244;2023-04-09T22:24:22;13.93;;;10.40;;
27869;SDS011;15225;50.730;4.244;2023-04-09T22:26:52;18.92;;;10.60;;
27869;SDS011;15225;50.730;4.244;2023-04-09T22:29:18;16.98;;;11.77;;
27869;SDS011;15225;50.730;4.244;2023-04-09T22:31:43;15.23;;;10.70;;
27869;SDS011;15225;50.730;4.244;2023-04-09T22:34:09;15.95;;;11.73;;
27869;SDS011;15225;50.730;4.244;2023-04-09T22:36:35;14.57;;;11.02;;
27869;SDS011;15225;50.730;4.244;2023-04-09T22:39:01;15.82;;;11.15;;
27869;SDS011;15225;50.730;4.244;2023-04-09T22:41:27;12.93;;;10.77;;
27869;SDS011;15225;50.730;4.244;2023-04-09T22:43:53;14.13;;;10.82;;
27869;SDS011;15225;50.730;4.244;2023-04-09T22:46:19;16.08;;;11.02;;
27869;SDS011;15225;50.730;4.244;2023-04-09T22:48:45;14.13;;;11.05;;
27869;SDS011;15225;50.730;4.244;2023-04-09T22:51:11;12.57;;;10.93;;
27869;SDS011;15225;50.730;4.244;2023-04-09T22:53:37;18.13;;;11.52;;
27869;SDS011;15225;50.730;4.244;2023-04-09T22:56:03;15.93;;;10.85;;
27869;SDS011;15225;50.730;4.244;2023-04-09T22:58:31;13.70;;;10.88;;
27869;SDS011;15225;50.730;4.244;2023-04-09T23:00:56;14.27;;;10.35;;
